Time;durP1;ratioP1;P1;durP2;ratioP2;P2;SDS_P1;SDS_P2;PMS_P1;PMS_P2;Temp;Humidity;BMP_temperature;BMP_pressure;BME280_temperature;BME280_humidity;BME280_pressure;Samples;Min_cycle;Max_cycle;Signal;HPM_P1;HPM_P2
2021/07/08 00:02:23;;;;;;;3.03;2.67;;;;;;;;;;5033982;28;20053;-53
2021/07/08 00:04:48;;;;;;;4.70;2.33;;;;;;;;;;5034644;28;20113;-54
2021/07/08 00:07:14;;;;;;;5.90;3.75;;;;;;;;;;5033988;28;20045;-55
2021/07/08 00:09:39;;;;;;;7.30;3.83;;;;;;;;;;5032424;28;20029;-53
2021/07/08 00:12:05;;;;;;;7.20;2.10;;;;;;;;;;5032397;28;20524;-55
2021/07/08 00:14:31;;;;;;;1.98;1.65;;;;;;;;;;5034556;28;20075;-56
2021/07/08 00:16:56;;;;;;;3.33;2.55;;;;;;;;;;5036426;28;20014;-54
2021/07/08 00:19:22;;;;;;;12.82;2.83;;;;;;;;;;5034474;28;20060;-55
2021/07/08 00:21:47;;;;;;;12.07;2.78;;;;;;;;;;5029591;28;20134;-55
2021/07/08 00:24:12;;;;;;;5.25;2.42;;;;;;;;;;5036130;28;20052;-55
2021/07/08 00:26:38;;;;;;;4.65;2.85;;;;;;;;;;5036197;28;20028;-54
2021/07/08 00:29:03;;;;;;;3.85;2.75;;;;;;;;;;5037252;28;20022;-52
2021/07/08 00:31:28;;;;;;;4.55;2.13;;;;;;;;;;5037336;28;20029;-53
2021/07/08 00:33:54;;;;;;;4.45;2.28;;;;;;;;;;5036475;28;20025;-53
2021/07/08 00:36:19;;;;;;;19.33;4.13;;;;;;;;;;5037582;28;20032;-55
2021/07/08 00:38:44;;;;;;;3.58;1.77;;;;;;;;;;5031710;28;20025;-54
2021/07/08 00:41:10;;;;;;;2.78;1.80;;;;;;;;;;5037493;28;20031;-55
2021/07/08 00:43:35;;;;;;;1.67;0.95;;;;;;;;;;5035917;28;20507;-54
2021/07/08 00:46:01;;;;;;;2.35;1.50;;;;;;;;;;5037849;28;20032;-54
2021/07/08 00:48:26;;;;;;;2.70;1.83;;;;;;;;;;5041066;28;20028;-55
2021/07/08 00:50:51;;;;;;;2.80;1.75;;;;;;;;;;5038233;28;20055;-55
2021/07/08 00:53:18;;;;;;;2.78;1.58;;;;;;;;;;5034286;28;20533;-54
2021/07/08 00:55:45;;;;;;;2.88;2.45;;;;;;;;;;5037080;28;20022;-54
2021/07/08 00:58:11;;;;;;;3.30;2.08;;;;;;;;;;5036638;28;20025;-54
2021/07/08 01:00:37;;;;;;;11.73;2.25;;;;;;;;;;5033089;28;20028;-55
2021/07/08 01:03:08;;;;;;;9.18;3.38;;;;;;;;;;5034909;28;20484;-56
2021/07/08 01:05:35;;;;;;;6.45;2.30;;;;;;;;;;5036474;28;20042;-53
2021/07/08 01:08:00;;;;;;;3.63;2.70;;;;;;;;;;5037538;28;20103;-55
2021/07/08 01:10:26;;;;;;;4.13;2.60;;;;;;;;;;5036600;28;20061;-56
2021/07/08 01:12:51;;;;;;;3.90;2.72;;;;;;;;;;5037333;28;20025;-56
2021/07/08 01:15:17;;;;;;;3.40;2.10;;;;;;;;;;5031453;28;20016;-54
2021/07/08 01:17:43;;;;;;;11.50;3.33;;;;;;;;;;5036677;28;20115;-54
2021/07/08 01:20:10;;;;;;;5.57;3.33;;;;;;;;;;5035914;28;20029;-54
2021/07/08 01:22:36;;;;;;;6.22;3.20;;;;;;;;;;5036436;28;20742;-55
2021/07/08 01:25:02;;;;;;;4.47;2.60;;;;;;;;;;5035444;28;20103;-55
2021/07/08 01:27:27;;;;;;;13.38;1.58;;;;;;;;;;5039145;28;20051;-54
2021/07/08 01:29:53;;;;;;;5.57;2.50;;;;;;;;;;5034711;28;20433;-55
2021/07/08 01:32:18;;;;;;;4.53;1.83;;;;;;;;;;5036236;28;20033;-56
2021/07/08 01:34:43;;;;;;;2.28;1.80;;;;;;;;;;5033934;28;20380;-55
2021/07/08 01:37:09;;;;;;;9.68;1.88;;;;;;;;;;5033288;28;20017;-54
2021/07/08 01:39:34;;;;;;;3.83;2.17;;;;;;;;;;5033743;28;20017;-54
2021/07/08 01:41:59;;;;;;;4.03;1.67;;;;;;;;;;5034509;28;20025;-55
2021/07/08 01:44:25;;;;;;;5.53;2.17;;;;;;;;;;5035677;28;20111;-54
2021/07/08 01:46:50;;;;;;;9.35;1.67;;;;;;;;;;5038037;28;20026;-55
2021/07/08 01:49:15;;;;;;;3.75;1.90;;;;;;;;;;5034465;28;20032;-54
2021/07/08 01:51:41;;;;;;;7.65;3.08;;;;;;;;;;5036549;28;20064;-52
2021/07/08 01:54:10;;;;;;;4.95;2.10;;;;;;;;;;5038047;28;20053;-55
2021/07/08 01:56:35;;;;;;;20.95;2.25;;;;;;;;;;5035793;28;20023;-55
2021/07/08 01:59:01;;;;;;;4.30;2.42;;;;;;;;;;5033478;28;20102;-55
2021/07/08 02:01:26;;;;;;;2.47;1.75;;;;;;;;;;5035038;28;20415;-55
2021/07/08 02:03:52;;;;;;;5.18;3.28;;;;;;;;;;5033739;28;20040;-55
2021/07/08 02:06:17;;;;;;;3.17;1.83;;;;;;;;;;5032724;28;20022;-56
2021/07/08 02:08:43;;;;;;;3.05;1.75;;;;;;;;;;5036276;28;20516;-52
2021/07/08 02:11:11;;;;;;;4.20;2.95;;;;;;;;;;5033828;28;20357;-58
2021/07/08 02:13:37;;;;;;;3.28;1.98;;;;;;;;;;5035005;28;20017;-57
2021/07/08 02:16:04;;;;;;;7.45;1.52;;;;;;;;;;5033706;28;20073;-57
2021/07/08 02:18:29;;;;;;;9.48;2.08;;;;;;;;;;5040171;28;20025;-53
2021/07/08 02:20:54;;;;;;;1.80;1.05;;;;;;;;;;5036404;28;20445;-54
2021/07/08 02:23:20;;;;;;;4.72;2.25;;;;;;;;;;5035278;28;20555;-54
2021/07/08 02:25:45;;;;;;;3.47;2.78;;;;;;;;;;5036627;28;20029;-54
2021/07/08 02:28:11;;;;;;;4.03;2.53;;;;;;;;;;5048508;28;20104;-53
2021/07/08 02:30:36;;;;;;;3.58;2.67;;;;;;;;;;5032199;28;20082;-55
2021/07/08 02:33:01;;;;;;;4.70;1.98;;;;;;;;;;5032652;28;20021;-54
2021/07/08 02:35:27;;;;;;;4.97;2.97;;;;;;;;;;5034306;28;20457;-54
2021/07/08 02:37:53;;;;;;;4.28;2.30;;;;;;;;;;5030260;28;20380;-53
2021/07/08 02:40:20;;;;;;;7.03;2.65;;;;;;;;;;5036657;28;20385;-53
2021/07/08 02:42:51;;;;;;;3.55;2.17;;;;;;;;;;5034673;28;20564;-53
2021/07/08 02:45:16;;;;;;;9.43;3.70;;;;;;;;;;5030902;28;20087;-52
2021/07/08 02:47:42;;;;;;;6.53;1.75;;;;;;;;;;5032675;28;20100;-54
2021/07/08 02:50:07;;;;;;;6.03;2.60;;;;;;;;;;5033542;28;20636;-54
2021/07/08 02:52:33;;;;;;;2.10;1.30;;;;;;;;;;5031836;28;20529;-54
2021/07/08 02:54:58;;;;;;;2.83;1.80;;;;;;;;;;5037034;28;20581;-53
2021/07/08 02:57:23;;;;;;;8.73;1.95;;;;;;;;;;5036292;28;20030;-53
2021/07/08 02:59:49;;;;;;;1.50;1.30;;;;;;;;;;5034320;28;20021;-54
2021/07/08 03:02:14;;;;;;;4.40;2.10;;;;;;;;;;5034779;28;20024;-53
2021/07/08 03:04:40;;;;;;;4.88;2.03;;;;;;;;;;5032126;28;20116;-53
2021/07/08 03:07:05;;;;;;;2.92;2.00;;;;;;;;;;5035522;28;20053;-55
2021/07/08 03:09:30;;;;;;;9.80;2.65;;;;;;;;;;5030808;28;20053;-53
2021/07/08 03:11:56;;;;;;;3.00;1.48;;;;;;;;;;5034494;28;20488;-54
2021/07/08 03:14:21;;;;;;;3.50;1.73;;;;;;;;;;5035377;28;20495;-52
2021/07/08 03:16:46;;;;;;;3.13;1.45;;;;;;;;;;5034430;28;20567;-52
2021/07/08 03:19:12;;;;;;;3.97;2.47;;;;;;;;;;5035410;28;20022;-52
2021/07/08 03:21:37;;;;;;;4.60;1.58;;;;;;;;;;5034644;28;20021;-54
2021/07/08 03:24:04;;;;;;;3.10;1.50;;;;;;;;;;5041101;28;20029;-53
2021/07/08 03:26:30;;;;;;;2.35;1.70;;;;;;;;;;5034198;28;20032;-54
2021/07/08 03:28:55;;;;;;;3.85;1.58;;;;;;;;;;5033059;28;20021;-55
2021/07/08 03:31:22;;;;;;;6.03;2.53;;;;;;;;;;5033734;28;20731;-54
2021/07/08 03:33:47;;;;;;;7.18;2.13;;;;;;;;;;5033564;28;20124;-54
2021/07/08 03:36:13;;;;;;;8.25;2.03;;;;;;;;;;5035125;28;20698;-53
2021/07/08 03:38:38;;;;;;;2.10;1.58;;;;;;;;;;5035589;28;20098;-54
2021/07/08 03:41:03;;;;;;;3.58;1.88;;;;;;;;;;5035543;28;20076;-54
2021/07/08 03:43:28;;;;;;;3.17;2.30;;;;;;;;;;5031475;28;20037;-55
2021/07/08 03:45:54;;;;;;;2.08;1.50;;;;;;;;;;5032574;28;20645;-53
2021/07/08 03:48:19;;;;;;;3.22;1.67;;;;;;;;;;5029133;28;20035;-53
2021/07/08 03:50:45;;;;;;;7.40;2.55;;;;;;;;;;5029591;28;20564;-54
2021/07/08 03:53:10;;;;;;;3.45;1.95;;;;;;;;;;5037317;28;20521;-53
2021/07/08 03:55:35;;;;;;;4.82;2.28;;;;;;;;;;5035622;28;20082;-52
2021/07/08 03:58:01;;;;;;;2.80;2.00;;;;;;;;;;5032429;28;20416;-55
2021/07/08 04:00:34;;;;;;;3.97;1.90;;;;;;;;;;5030927;28;20029;-53
2021/07/08 04:03:00;;;;;;;3.65;1.80;;;;;;;;;;5031443;28;20017;-55
2021/07/08 04:05:25;;;;;;;2.45;2.10;;;;;;;;;;5034104;28;20060;-55
2021/07/08 04:07:50;;;;;;;3.03;1.90;;;;;;;;;;5034966;28;20094;-55
2021/07/08 04:10:16;;;;;;;6.35;2.15;;;;;;;;;;5030789;28;20034;-53
2021/07/08 04:12:41;;;;;;;2.33;2.00;;;;;;;;;;5032854;28;20392;-54
2021/07/08 04:15:07;;;;;;;6.57;2.38;;;;;;;;;;5033020;28;20047;-52
2021/07/08 04:17:32;;;;;;;1.25;1.10;;;;;;;;;;5035465;28;20062;-54
2021/07/08 04:19:58;;;;;;;5.63;5.13;;;;;;;;;;5032662;28;20023;-53
2021/07/08 04:22:24;;;;;;;4.50;2.70;;;;;;;;;;5033269;28;20103;-53
2021/07/08 04:24:49;;;;;;;3.38;1.63;;;;;;;;;;5035041;28;20121;-53
2021/07/08 04:27:14;;;;;;;3.13;2.67;;;;;;;;;;5034814;28;20096;-52
2021/07/08 04:29:40;;;;;;;5.40;2.50;;;;;;;;;;5032164;28;20403;-54
2021/07/08 04:32:05;;;;;;;3.10;2.33;;;;;;;;;;5032799;28;20419;-53
2021/07/08 04:34:30;;;;;;;4.10;2.47;;;;;;;;;;5030769;28;20021;-55
2021/07/08 04:36:56;;;;;;;3.78;2.10;;;;;;;;;;5032772;28;20655;-53
2021/07/08 04:39:21;;;;;;;5.47;1.88;;;;;;;;;;5035942;28;20079;-54
2021/07/08 04:41:47;;;;;;;2.58;1.83;;;;;;;;;;5033116;28;20443;-53
2021/07/08 04:44:13;;;;;;;3.97;2.63;;;;;;;;;;5036910;28;20388;-54
2021/07/08 04:46:38;;;;;;;14.13;2.33;;;;;;;;;;5035553;28;20099;-54
2021/07/08 04:49:03;;;;;;;7.65;2.45;;;;;;;;;;5027452;28;20100;-54
2021/07/08 04:51:28;;;;;;;12.15;3.42;;;;;;;;;;5026623;28;20405;-55
2021/07/08 04:53:54;;;;;;;2.47;1.63;;;;;;;;;;5035278;28;20037;-54
2021/07/08 04:56:19;;;;;;;3.92;2.50;;;;;;;;;;5028061;28;20013;-55
2021/07/08 04:58:44;;;;;;;6.35;2.65;;;;;;;;;;5031011;28;20905;-54
2021/07/08 05:01:10;;;;;;;2.10;1.80;;;;;;;;;;5032952;28;20028;-53
2021/07/08 05:03:35;;;;;;;2.95;1.75;;;;;;;;;;5032777;28;20037;-54
2021/07/08 05:06:01;;;;;;;4.53;3.63;;;;;;;;;;5029489;28;20021;-53
2021/07/08 05:08:26;;;;;;;2.92;1.95;;;;;;;;;;5035171;28;20584;-55
2021/07/08 05:10:51;;;;;;;11.43;2.88;;;;;;;;;;5036440;28;20091;-56
2021/07/08 05:13:16;;;;;;;2.30;1.17;;;;;;;;;;5037047;28;20028;-56
2021/07/08 05:15:42;;;;;;;5.03;2.67;;;;;;;;;;5036199;28;20068;-56
2021/07/08 05:18:07;;;;;;;2.75;2.40;;;;;;;;;;5034903;28;20014;-56
2021/07/08 05:20:33;;;;;;;3.47;2.38;;;;;;;;;;5034573;28;20491;-56
2021/07/08 05:23:03;;;;;;;11.60;2.90;;;;;;;;;;5035552;28;20018;-56
2021/07/08 05:25:29;;;;;;;2.92;1.38;;;;;;;;;;5037300;28;20104;-57
2021/07/08 05:27:55;;;;;;;6.63;2.13;;;;;;;;;;5035853;28;20454;-56
2021/07/08 05:30:20;;;;;;;2.33;1.88;;;;;;;;;;5037635;28;20028;-56
2021/07/08 05:32:45;;;;;;;9.48;3.40;;;;;;;;;;5037722;28;20036;-57
2021/07/08 05:35:11;;;;;;;3.47;3.17;;;;;;;;;;5031559;28;20052;-58
2021/07/08 05:37:37;;;;;;;4.78;2.38;;;;;;;;;;5031778;28;20029;-58
2021/07/08 05:40:03;;;;;;;2.80;2.25;;;;;;;;;;5033335;28;20047;-58
2021/07/08 05:42:29;;;;;;;5.53;2.92;;;;;;;;;;5036156;28;20020;-58
2021/07/08 05:44:55;;;;;;;18.40;3.03;;;;;;;;;;5033060;28;20029;-58
2021/07/08 05:47:20;;;;;;;10.27;2.42;;;;;;;;;;5030812;28;20021;-59
2021/07/08 05:49:45;;;;;;;4.85;2.72;;;;;;;;;;5032971;28;20068;-59
2021/07/08 05:52:11;;;;;;;3.38;3.08;;;;;;;;;;5035989;28;20429;-59
2021/07/08 05:54:36;;;;;;;12.35;3.75;;;;;;;;;;5030792;28;20549;-59
2021/07/08 05:57:02;;;;;;;4.15;3.45;;;;;;;;;;5030658;28;20063;-58
2021/07/08 05:59:29;;;;;;;8.10;2.72;;;;;;;;;;5034134;28;20067;-58
2021/07/08 06:01:55;;;;;;;5.00;1.60;;;;;;;;;;5037617;28;20240;-59
2021/07/08 06:04:20;;;;;;;3.30;2.35;;;;;;;;;;5039177;28;20101;-59
2021/07/08 06:06:45;;;;;;;3.33;2.47;;;;;;;;;;5034913;28;20029;-59
2021/07/08 06:09:10;;;;;;;3.60;2.50;;;;;;;;;;5032930;28;20107;-59
2021/07/08 06:11:36;;;;;;;3.00;2.33;;;;;;;;;;5036061;28;20033;-59
2021/07/08 06:14:01;;;;;;;5.30;2.83;;;;;;;;;;5036335;28;20017;-58
2021/07/08 06:16:26;;;;;;;8.40;3.13;;;;;;;;;;5028362;28;20432;-59
2021/07/08 06:18:52;;;;;;;4.82;2.55;;;;;;;;;;5033706;28;20029;-57
2021/07/08 06:21:17;;;;;;;4.97;2.58;;;;;;;;;;5032105;28;20025;-58
2021/07/08 06:23:42;;;;;;;20.05;2.80;;;;;;;;;;5035979;28;20100;-58
2021/07/08 06:26:08;;;;;;;3.20;1.77;;;;;;;;;;5032988;28;20026;-57
2021/07/08 06:28:34;;;;;;;4.85;2.70;;;;;;;;;;5039116;28;20574;-57
2021/07/08 06:31:00;;;;;;;2.78;1.52;;;;;;;;;;5037528;28;20581;-58
2021/07/08 06:33:25;;;;;;;3.80;1.30;;;;;;;;;;5038242;28;20020;-57
2021/07/08 06:35:50;;;;;;;3.17;2.17;;;;;;;;;;5035770;28;20026;-57
2021/07/08 06:38:15;;;;;;;1.98;1.17;;;;;;;;;;5034524;28;20017;-57
2021/07/08 06:40:41;;;;;;;2.92;1.38;;;;;;;;;;5035069;28;20032;-58
2021/07/08 06:43:06;;;;;;;3.28;1.20;;;;;;;;;;5035409;28;20108;-57
2021/07/08 06:45:35;;;;;;;4.30;3.15;;;;;;;;;;5031505;28;20029;-58
2021/07/08 06:48:02;;;;;;;5.53;2.80;;;;;;;;;;5032712;28;20025;-58
2021/07/08 06:50:27;;;;;;;3.53;2.22;;;;;;;;;;5032168;28;20057;-58
2021/07/08 06:52:53;;;;;;;2.40;1.58;;;;;;;;;;5032999;28;20068;-58
2021/07/08 06:55:18;;;;;;;5.85;2.10;;;;;;;;;;5035447;28;20017;-58
2021/07/08 06:57:53;;;;;;;5.68;2.58;;;;;;;;;;5033275;28;20018;-57
2021/07/08 07:00:19;;;;;;;6.90;1.88;;;;;;;;;;5037283;28;20369;-58
2021/07/08 07:02:45;;;;;;;1.75;1.00;;;;;;;;;;5029959;28;20029;-60
2021/07/08 07:05:10;;;;;;;4.13;2.17;;;;;;;;;;5035666;28;20062;-60
2021/07/08 07:07:35;;;;;;;2.80;1.83;;;;;;;;;;5035146;28;20056;-60
2021/07/08 07:10:01;;;;;;;17.60;2.28;;;;;;;;;;5029503;28;20528;-59
2021/07/08 07:12:26;;;;;;;10.70;4.53;;;;;;;;;;5029770;28;20025;-59
2021/07/08 07:14:51;;;;;;;2.17;1.73;;;;;;;;;;5033153;28;20026;-59
2021/07/08 07:17:17;;;;;;;6.10;2.15;;;;;;;;;;5029794;28;20170;-59
2021/07/08 07:19:42;;;;;;;7.45;3.03;;;;;;;;;;5031859;28;20013;-59
2021/07/08 07:22:07;;;;;;;14.63;2.90;;;;;;;;;;5032320;28;20044;-59
2021/07/08 07:24:33;;;;;;;10.27;2.28;;;;;;;;;;5034964;28;20027;-59
2021/07/08 07:26:58;;;;;;;6.65;3.20;;;;;;;;;;5034315;28;20052;-59
2021/07/08 07:29:23;;;;;;;3.60;1.65;;;;;;;;;;5037916;28;20028;-60
2021/07/08 07:31:49;;;;;;;1.90;1.17;;;;;;;;;;5034459;28;20025;-59
2021/07/08 07:34:15;;;;;;;3.17;1.63;;;;;;;;;;5038873;28;20033;-59
2021/07/08 07:36:40;;;;;;;4.00;2.78;;;;;;;;;;5034833;28;20020;-59
2021/07/08 07:39:06;;;;;;;9.07;2.55;;;;;;;;;;5032519;28;20406;-59
2021/07/08 07:41:32;;;;;;;7.45;1.20;;;;;;;;;;5035191;28;20032;-58
2021/07/08 07:43:57;;;;;;;4.30;2.78;;;;;;;;;;5044882;28;20049;-59
2021/07/08 07:46:22;;;;;;;16.60;5.50;;;;;;;;;;5030539;28;20065;-59
2021/07/08 07:48:48;;;;;;;3.67;3.30;;;;;;;;;;5034611;28;20031;-60
2021/07/08 07:51:13;;;;;;;5.75;2.83;;;;;;;;;;5033154;28;20079;-59
2021/07/08 07:53:39;;;;;;;2.83;2.28;;;;;;;;;;5033238;28;20033;-60
2021/07/08 07:56:04;;;;;;;4.20;1.40;;;;;;;;;;5033932;28;20024;-60
2021/07/08 07:58:30;;;;;;;8.65;2.22;;;;;;;;;;5034374;28;20021;-51
2021/07/08 08:00:57;;;;;;;4.75;3.90;;;;;;;;;;5031960;28;20025;-55
2021/07/08 08:03:22;;;;;;;12.35;3.03;;;;;;;;;;5039332;28;20064;-59
2021/07/08 08:08:42;;;;;;;11.63;3.67;;;;;;;;;;5016678;28;20053;-58
2021/07/08 08:11:09;;;;;;;11.13;2.15;;;;;;;;;;5031813;28;20037;-59
2021/07/08 08:13:35;;;;;;;9.23;2.97;;;;;;;;;;5031226;28;20029;-59
2021/07/08 08:16:02;;;;;;;4.18;0.90;;;;;;;;;;5036755;28;20013;-59
2021/07/08 08:18:27;;;;;;;7.43;2.00;;;;;;;;;;5031870;28;20025;-59
2021/07/08 08:20:53;;;;;;;11.45;2.83;;;;;;;;;;5030526;28;20017;-59
2021/07/08 08:23:19;;;;;;;6.15;1.75;;;;;;;;;;5028350;28;20048;-59
2021/07/08 08:25:44;;;;;;;14.25;2.17;;;;;;;;;;5029696;28;20060;-59
2021/07/08 08:28:09;;;;;;;5.13;1.83;;;;;;;;;;5031970;28;20017;-59
2021/07/08 08:30:35;;;;;;;29.25;3.65;;;;;;;;;;5031720;28;20033;-59
2021/07/08 08:33:00;;;;;;;6.53;3.20;;;;;;;;;;5035207;28;20048;-59
2021/07/08 08:35:26;;;;;;;18.15;3.00;;;;;;;;;;5039057;28;20132;-59
2021/07/08 08:37:51;;;;;;;5.45;2.10;;;;;;;;;;5034109;28;20031;-59
2021/07/08 08:40:17;;;;;;;4.28;2.10;;;;;;;;;;5033754;28;20029;-59
2021/07/08 08:42:43;;;;;;;5.78;1.75;;;;;;;;;;5030952;28;20025;-59
2021/07/08 08:45:11;;;;;;;8.95;3.63;;;;;;;;;;5036288;28;20025;-59
2021/07/08 08:47:52;;;;;;;5.28;1.98;;;;;;;;;;5036930;28;20032;-59
2021/07/08 08:50:17;;;;;;;3.75;1.45;;;;;;;;;;5035770;28;20029;-59
2021/07/08 08:52:43;;;;;;;4.80;1.88;;;;;;;;;;5037030;28;20065;-59
2021/07/08 08:55:09;;;;;;;2.25;1.02;;;;;;;;;;5038117;28;20028;-59
2021/07/08 08:57:35;;;;;;;4.60;1.15;;;;;;;;;;5035209;28;20025;-59
2021/07/08 09:00:01;;;;;;;0.82;0.40;;;;;;;;;;5032394;28;20014;-59
2021/07/08 09:02:26;;;;;;;10.93;2.58;;;;;;;;;;5036204;28;20484;-59
2021/07/08 09:04:51;;;;;;;3.92;1.63;;;;;;;;;;5042009;28;20583;-59
2021/07/08 09:07:27;;;;;;;7.43;1.05;;;;;;;;;;5039263;28;20690;-59
2021/07/08 09:09:53;;;;;;;7.22;2.28;;;;;;;;;;5038517;28;20051;-59
2021/07/08 09:12:19;;;;;;;3.70;1.55;;;;;;;;;;5036934;28;20025;-60
2021/07/08 09:14:45;;;;;;;6.18;1.02;;;;;;;;;;5041769;28;20524;-59
2021/07/08 09:17:20;;;;;;;4.00;2.25;;;;;;;;;;5037400;28;20022;-59
2021/07/08 09:19:46;;;;;;;3.95;1.17;;;;;;;;;;5035062;28;20404;-59
2021/07/08 09:22:13;;;;;;;6.70;1.55;;;;;;;;;;5034599;28;20148;-59
2021/07/08 09:24:38;;;;;;;4.25;1.15;;;;;;;;;;5038471;28;20554;-59
2021/07/08 09:27:07;;;;;;;4.72;1.30;;;;;;;;;;5034336;28;20476;-59
2021/07/08 09:29:33;;;;;;;35.78;3.30;;;;;;;;;;5034608;28;20649;-59
2021/07/08 09:32:00;;;;;;;4.82;2.20;;;;;;;;;;5030480;28;20071;-59
2021/07/08 09:34:27;;;;;;;3.92;1.08;;;;;;;;;;5032534;28;20026;-59
2021/07/08 09:37:09;;;;;;;3.72;1.55;;;;;;;;;;5050256;28;20018;-59
2021/07/08 09:39:35;;;;;;;7.20;2.40;;;;;;;;;;5041379;28;20023;-59
2021/07/08 09:42:00;;;;;;;10.32;1.30;;;;;;;;;;5036174;28;20029;-59
2021/07/08 09:44:26;;;;;;;2.88;0.85;;;;;;;;;;5037685;28;20028;-59
2021/07/08 09:46:52;;;;;;;3.20;1.00;;;;;;;;;;5033572;28;20025;-59
2021/07/08 09:49:18;;;;;;;6.78;2.13;;;;;;;;;;5031370;28;20071;-60
2021/07/08 09:51:45;;;;;;;2.97;1.23;;;;;;;;;;5032966;28;20370;-60
2021/07/08 09:56:53;;;;;;;4.20;0.93;;;;;;;;;;5030273;28;20020;-59
2021/07/08 09:59:22;;;;;;;9.35;8.57;;;;;;;;;;5039248;28;20100;-60
2021/07/08 10:01:57;;;;;;;3.67;2.05;;;;;;;;;;5034124;28;20056;-60
2021/07/08 10:04:23;;;;;;;5.05;0.90;;;;;;;;;;5034830;28;20052;-60
2021/07/08 10:06:48;;;;;;;6.75;1.33;;;;;;;;;;5038438;28;20508;-60
2021/07/08 10:09:18;;;;;;;7.97;2.85;;;;;;;;;;5038473;28;20116;-60
2021/07/08 10:11:50;;;;;;;2.42;1.13;;;;;;;;;;5033649;28;20030;-60
2021/07/08 10:14:19;;;;;;;8.02;1.60;;;;;;;;;;5035655;28;20472;-59
2021/07/08 10:16:49;;;;;;;2.28;1.55;;;;;;;;;;5033779;28;20013;-60
2021/07/08 10:19:16;;;;;;;10.98;1.77;;;;;;;;;;5029348;28;20049;-59
2021/07/08 10:21:42;;;;;;;4.05;1.90;;;;;;;;;;5036240;28;20112;-60
2021/07/08 10:24:08;;;;;;;1.65;1.35;;;;;;;;;;5031200;28;20105;-60
2021/07/08 10:26:33;;;;;;;2.50;1.63;;;;;;;;;;5032845;28;20022;-59
2021/07/08 10:28:59;;;;;;;3.53;2.08;;;;;;;;;;5035931;28;20601;-60
2021/07/08 10:31:25;;;;;;;1.98;1.38;;;;;;;;;;5035990;28;20018;-60
2021/07/08 10:34:13;;;;;;;3.15;0.95;;;;;;;;;;5033401;28;20489;-60
2021/07/08 10:36:40;;;;;;;1.90;1.38;;;;;;;;;;5022470;28;20116;-60
2021/07/08 10:39:18;;;;;;;3.28;1.25;;;;;;;;;;5034589;28;20593;-60
2021/07/08 10:41:44;;;;;;;5.15;1.75;;;;;;;;;;5034633;28;20022;-60
2021/07/08 10:44:28;;;;;;;8.70;2.75;;;;;;;;;;5036447;28;20031;-60
2021/07/08 10:46:53;;;;;;;3.75;1.08;;;;;;;;;;5035426;28;20028;-59
2021/07/08 10:49:19;;;;;;;3.00;1.00;;;;;;;;;;5035622;28;20032;-59
2021/07/08 10:51:44;;;;;;;3.80;1.25;;;;;;;;;;5031273;28;20046;-60
2021/07/08 10:54:29;;;;;;;1.83;0.65;;;;;;;;;;5039149;28;20074;-60
2021/07/08 10:56:55;;;;;;;2.88;1.73;;;;;;;;;;5033154;28;20485;-60
2021/07/08 10:59:20;;;;;;;2.22;1.13;;;;;;;;;;5038669;28;20032;-60
2021/07/08 11:01:48;;;;;;;4.80;1.08;;;;;;;;;;5034080;28;20025;-60
2021/07/08 11:04:14;;;;;;;2.35;0.93;;;;;;;;;;5033092;28;20265;-60
2021/07/08 11:06:40;;;;;;;6.65;2.75;;;;;;;;;;5033138;28;20048;-60
2021/07/08 11:09:18;;;;;;;1.60;0.90;;;;;;;;;;5026146;28;20049;-60
2021/07/08 11:11:46;;;;;;;6.22;1.95;;;;;;;;;;5031522;28;20112;-60
2021/07/08 11:14:14;;;;;;;25.65;1.85;;;;;;;;;;5033360;28;20031;-60
2021/07/08 11:16:43;;;;;;;3.13;0.98;;;;;;;;;;5036679;28;20021;-60
2021/07/08 11:19:09;;;;;;;5.53;2.08;;;;;;;;;;5035186;28;20491;-60
2021/07/08 11:21:49;;;;;;;3.85;1.25;;;;;;;;;;5033934;28;20037;-60
2021/07/08 11:24:24;;;;;;;7.10;2.15;;;;;;;;;;5032137;28;20106;-60
2021/07/08 11:26:53;;;;;;;2.22;1.27;;;;;;;;;;5033412;28;20030;-60
2021/07/08 11:29:41;;;;;;;5.75;1.65;;;;;;;;;;5029370;28;20017;-59
2021/07/08 11:32:23;;;;;;;10.05;0.98;;;;;;;;;;5025905;28;20117;-60
2021/07/08 11:34:53;;;;;;;13.13;2.35;;;;;;;;;;5033084;28;20169;-60
2021/07/08 11:37:24;;;;;;;5.67;2.03;;;;;;;;;;5031091;28;20018;-60
2021/07/08 11:39:57;;;;;;;6.05;0.80;;;;;;;;;;5033642;28;20024;-60
2021/07/08 11:42:23;;;;;;;3.97;2.03;;;;;;;;;;5029873;28;20112;-60
2021/07/08 11:44:49;;;;;;;3.20;1.20;;;;;;;;;;5028553;28;20495;-60
2021/07/08 11:47:14;;;;;;;5.50;1.23;;;;;;;;;;5035093;28;20033;-60
2021/07/08 11:49:40;;;;;;;1.83;0.75;;;;;;;;;;5036241;28;20030;-60
2021/07/08 11:52:18;;;;;;;4.10;0.77;;;;;;;;;;5032604;28;20042;-60
2021/07/08 11:55:00;;;;;;;3.03;0.77;;;;;;;;;;5032068;28;20021;-60
2021/07/08 11:57:26;;;;;;;2.30;1.30;;;;;;;;;;5032647;28;20045;-60
2021/07/08 11:59:51;;;;;;;1.30;0.55;;;;;;;;;;5030712;28;20056;-60
2021/07/08 12:02:32;;;;;;;4.97;2.03;;;;;;;;;;5031882;28;20457;-60
2021/07/08 12:05:13;;;;;;;4.45;1.63;;;;;;;;;;5034555;28;20020;-60
2021/07/08 12:07:41;;;;;;;3.95;1.55;;;;;;;;;;5032914;28;20075;-60
2021/07/08 12:10:07;;;;;;;8.23;1.23;;;;;;;;;;5033736;28;20036;-60
2021/07/08 12:12:33;;;;;;;2.47;2.13;;;;;;;;;;5031318;28;20021;-60
2021/07/08 12:14:59;;;;;;;1.65;0.80;;;;;;;;;;5032703;28;20013;-60
2021/07/08 12:17:27;;;;;;;2.03;1.15;;;;;;;;;;5033124;28;20021;-60
2021/07/08 12:20:03;;;;;;;2.85;1.55;;;;;;;;;;5035332;28;20017;-60
2021/07/08 12:22:28;;;;;;;11.70;1.85;;;;;;;;;;5038056;28;20029;-60
2021/07/08 12:24:53;;;;;;;3.05;1.08;;;;;;;;;;5039822;28;20037;-60
2021/07/08 12:27:18;;;;;;;5.15;1.80;;;;;;;;;;5037246;28;20019;-60
2021/07/08 12:29:44;;;;;;;4.45;2.40;;;;;;;;;;5035786;28;20033;-60
2021/07/08 12:32:09;;;;;;;6.45;2.20;;;;;;;;;;5030886;28;20024;-60
2021/07/08 12:34:37;;;;;;;4.30;1.47;;;;;;;;;;5037574;28;20056;-60
2021/07/08 12:37:09;;;;;;;4.10;2.50;;;;;;;;;;5035238;28;20263;-60
2021/07/08 12:39:34;;;;;;;3.03;1.60;;;;;;;;;;5038896;28;20560;-60
2021/07/08 12:42:00;;;;;;;1.75;1.10;;;;;;;;;;5037371;28;20115;-60
2021/07/08 12:44:25;;;;;;;6.72;1.15;;;;;;;;;;5035714;28;20033;-60
2021/07/08 12:46:54;;;;;;;3.58;0.70;;;;;;;;;;5041037;28;20030;-60
2021/07/08 12:49:20;;;;;;;3.15;1.73;;;;;;;;;;5040412;28;20036;-60
2021/07/08 12:51:45;;;;;;;6.60;2.25;;;;;;;;;;5037158;28;20029;-60
2021/07/08 12:54:10;;;;;;;6.68;1.67;;;;;;;;;;5033661;28;20033;-60
2021/07/08 12:56:36;;;;;;;6.13;2.30;;;;;;;;;;5033354;28;20010;-61
2021/07/08 12:59:02;;;;;;;10.10;2.25;;;;;;;;;;5036584;28;20013;-60
2021/07/08 13:01:29;;;;;;;9.65;2.90;;;;;;;;;;5035460;28;20032;-60
2021/07/08 13:03:58;;;;;;;3.17;1.48;;;;;;;;;;5033063;28;20081;-60
2021/07/08 13:06:25;;;;;;;1.77;1.00;;;;;;;;;;5032730;28;20021;-60
2021/07/08 13:09:01;;;;;;;1.60;1.15;;;;;;;;;;5033467;28;20583;-60
2021/07/08 13:11:27;;;;;;;1.60;0.77;;;;;;;;;;5036629;28;20056;-60
2021/07/08 13:13:52;;;;;;;6.38;1.10;;;;;;;;;;5038102;28;20461;-60
2021/07/08 13:16:18;;;;;;;13.07;2.28;;;;;;;;;;5039185;28;20499;-60
2021/07/08 13:18:44;;;;;;;3.47;0.93;;;;;;;;;;5037226;28;20032;-60
2021/07/08 13:21:13;;;;;;;6.45;1.90;;;;;;;;;;5033046;28;20025;-60
2021/07/08 13:23:39;;;;;;;2.80;1.35;;;;;;;;;;5033643;28;20025;-60
2021/07/08 13:26:09;;;;;;;15.52;3.92;;;;;;;;;;5032578;28;20026;-60
2021/07/08 13:28:35;;;;;;;10.73;1.55;;;;;;;;;;5038558;28;20548;-60
2021/07/08 13:31:10;;;;;;;10.25;2.97;;;;;;;;;;5038406;28;20032;-60
2021/07/08 13:33:40;;;;;;;4.05;2.22;;;;;;;;;;5032529;28;20029;-60
2021/07/08 13:36:13;;;;;;;3.00;0.77;;;;;;;;;;5033492;28;20029;-59
2021/07/08 13:38:39;;;;;;;3.00;1.65;;;;;;;;;;5035774;28;20231;-60
2021/07/08 13:41:07;;;;;;;9.30;2.60;;;;;;;;;;5032397;28;20485;-60
2021/07/08 13:43:37;;;;;;;2.15;0.63;;;;;;;;;;5034331;28;20025;-60
2021/07/08 13:46:19;;;;;;;7.20;2.85;;;;;;;;;;5038082;28;20034;-60
2021/07/08 13:48:46;;;;;;;15.40;2.75;;;;;;;;;;5035456;28;20026;-60
2021/07/08 13:51:12;;;;;;;8.20;3.65;;;;;;;;;;5038915;28;20048;-60
2021/07/08 13:53:38;;;;;;;1.88;1.17;;;;;;;;;;5038461;28;20052;-62
2021/07/08 13:56:04;;;;;;;6.68;1.17;;;;;;;;;;5035136;28;20071;-63
2021/07/08 13:58:29;;;;;;;3.45;1.65;;;;;;;;;;5036035;28;20542;-63
2021/07/08 14:00:56;;;;;;;4.07;1.42;;;;;;;;;;5031300;28;20025;-63
2021/07/08 14:03:21;;;;;;;1.98;0.88;;;;;;;;;;5035464;28;20522;-63
2021/07/08 14:05:47;;;;;;;5.72;5.13;;;;;;;;;;5031473;28;20046;-63
2021/07/08 14:08:13;;;;;;;6.13;2.92;;;;;;;;;;5032615;28;20046;-63
2021/07/08 14:10:38;;;;;;;9.77;2.15;;;;;;;;;;5032441;28;20050;-63
2021/07/08 14:13:04;;;;;;;0.50;0.40;;;;;;;;;;5034769;28;20025;-64
2021/07/08 14:15:29;;;;;;;5.55;1.95;;;;;;;;;;5035174;28;20028;-63
2021/07/08 14:17:55;;;;;;;5.22;1.27;;;;;;;;;;5036330;28;20030;-64
2021/07/08 14:20:20;;;;;;;2.50;0.95;;;;;;;;;;5040480;28;20418;-63
2021/07/08 14:22:45;;;;;;;4.80;2.22;;;;;;;;;;5040556;28;20572;-63
2021/07/08 14:25:11;;;;;;;2.20;0.73;;;;;;;;;;5037768;28;20490;-64
2021/07/08 14:27:36;;;;;;;16.50;3.72;;;;;;;;;;5033861;28;20658;-64
2021/07/08 14:30:03;;;;;;;8.00;1.60;;;;;;;;;;5031671;28;20155;-63
2021/07/08 14:32:28;;;;;;;3.53;1.17;;;;;;;;;;5034191;28;20087;-63
2021/07/08 14:34:54;;;;;;;2.97;1.13;;;;;;;;;;5038263;28;20532;-60
2021/07/08 14:37:19;;;;;;;5.28;2.10;;;;;;;;;;5036908;28;20028;-60
2021/07/08 14:39:44;;;;;;;6.90;1.25;;;;;;;;;;5034182;28;20479;-60
2021/07/08 14:42:14;;;;;;;12.40;1.60;;;;;;;;;;5033881;28;20016;-60
2021/07/08 14:44:40;;;;;;;7.38;2.58;;;;;;;;;;5036573;28;20535;-60